createdAt,value
2022-09-23T13:04:17.444Z,17.40
2022-09-23T13:07:05.865Z,17.50
2022-09-23T13:09:40.639Z,17.50
2022-09-23T13:12:16.987Z,17.50
2022-09-23T13:20:20.974Z,17.60
2022-09-23T13:22:53.275Z,17.60
2022-09-23T13:25:24.407Z,17.60
2022-09-23T13:27:55.081Z,17.60
2022-09-23T13:30:26.598Z,17.70
2022-09-23T13:33:05.832Z,17.70
2022-09-23T13:35:38.110Z,17.70
2022-09-23T13:38:32.247Z,17.70
2022-09-23T13:41:05.338Z,17.70
2022-09-23T13:43:41.413Z,17.70
2022-09-23T13:46:23.378Z,17.70
2022-09-23T13:48:54.803Z,17.80
2022-09-23T13:51:31.440Z,17.80
2022-09-23T13:54:00.706Z,17.80
2022-09-23T13:56:29.503Z,17.90
2022-09-23T13:59:24.041Z,17.90
2022-09-23T14:01:50.788Z,17.90
2022-09-23T14:04:25.404Z,17.90
2022-09-23T14:06:53.650Z,17.90
2022-09-23T14:09:24.517Z,17.90
2022-09-23T14:11:52.090Z,17.90
2022-09-23T14:14:19.496Z,17.90
2022-09-23T14:16:49.839Z,17.90
2022-09-23T14:19:19.333Z,17.90
2022-09-23T14:21:51.219Z,17.90
2022-09-23T14:24:33.084Z,17.80
2022-09-23T14:27:15.306Z,17.90
2022-09-23T14:29:45.048Z,17.90
2022-09-23T14:32:15.938Z,17.90
2022-09-23T14:34:48.607Z,17.80
2022-09-23T14:37:48.214Z,17.80
2022-09-23T14:40:25.033Z,17.90
2022-09-23T14:42:57.802Z,17.80
2022-09-23T14:45:27.235Z,17.80
2022-09-23T14:47:59.808Z,17.80
2022-09-23T14:50:47.140Z,17.80
2022-09-23T14:53:23.040Z,17.70
2022-09-23T14:56:07.560Z,17.70
2022-09-23T14:58:54.859Z,17.80
2022-09-23T15:01:35.240Z,17.80
2022-09-23T15:04:32.427Z,17.80
2022-09-23T15:07:07.337Z,17.80
2022-09-23T15:09:41.641Z,17.70
2022-09-23T15:12:16.595Z,17.70
2022-09-23T15:14:46.479Z,17.70
2022-09-23T15:17:38.238Z,17.60
2022-09-23T15:20:21.443Z,17.70
2022-09-23T15:22:50.857Z,17.60
2022-09-23T15:25:28.238Z,17.70
2022-09-23T15:28:03.248Z,17.60
2022-09-23T15:30:31.944Z,17.60
2022-09-23T15:32:58.621Z,17.60
2022-09-23T15:35:26.539Z,17.50
2022-09-23T15:38:00.486Z,17.60
2022-09-23T15:40:33.021Z,17.50
2022-09-23T15:43:02.191Z,17.50
2022-09-23T15:45:35.922Z,17.50
2022-09-23T15:48:08.114Z,17.60
2022-09-23T15:50:36.278Z,17.50
2022-09-23T15:53:03.218Z,17.50
2022-09-23T15:55:29.731Z,17.50
2022-09-23T15:57:56.310Z,17.50
2022-09-23T16:00:22.961Z,17.50
2022-09-23T16:02:50.337Z,17.50
2022-09-23T16:05:27.320Z,17.40
2022-09-23T16:07:53.958Z,17.40
2022-09-23T16:10:22.228Z,17.40
2022-09-23T16:12:49.565Z,17.40
2022-09-23T16:15:21.211Z,17.40
2022-09-23T16:17:47.744Z,17.40
2022-09-23T16:20:18.098Z,17.30
2022-09-23T16:23:00.541Z,17.30
2022-09-23T16:25:30.924Z,17.30
2022-09-23T16:27:58.369Z,17.30
2022-09-23T16:30:26.762Z,17.20
2022-09-23T16:32:53.608Z,17.20
2022-09-23T16:35:24.916Z,17.20
2022-09-23T16:37:52.715Z,17.20
2022-09-23T16:40:21.175Z,17.10
2022-09-23T16:42:49.145Z,17.10
2022-09-23T16:45:18.181Z,17.10
2022-09-23T16:47:46.529Z,17.10
2022-09-23T16:50:14.638Z,17.00
2022-09-23T16:52:44.970Z,17.00
2022-09-23T16:55:12.884Z,16.90
2022-09-23T16:57:40.169Z,17.00
2022-09-23T17:00:31.332Z,16.90
2022-09-23T17:03:16.917Z,16.90
2022-09-23T17:05:46.609Z,16.80
2022-09-23T17:08:14.572Z,16.80
2022-09-23T17:10:42.464Z,16.80
2022-09-23T17:13:09.613Z,16.70
2022-09-23T17:15:40.555Z,16.70
2022-09-23T17:18:08.728Z,16.70
2022-09-23T17:20:35.834Z,16.60
2022-09-23T17:23:05.912Z,16.60
2022-09-23T17:25:33.990Z,16.60
2022-09-23T17:28:00.765Z,16.50
2022-09-23T17:30:28.938Z,16.50
2022-09-23T17:32:56.108Z,16.50
2022-09-23T17:35:22.737Z,16.40
2022-09-23T17:37:49.937Z,16.40
2022-09-23T17:40:16.656Z,16.30
2022-09-23T17:42:43.280Z,16.30
2022-09-23T17:45:12.349Z,16.20
2022-09-23T17:47:41.672Z,16.20
2022-09-23T17:50:08.658Z,16.20
2022-09-23T17:52:35.241Z,16.10
2022-09-23T17:55:01.764Z,16.00
2022-09-23T17:57:28.296Z,16.00
2022-09-23T17:59:55.985Z,15.90
2022-09-23T18:02:22.684Z,15.90
2022-09-23T18:04:49.623Z,15.80
2022-09-23T18:07:16.321Z,15.80
2022-09-23T18:09:42.814Z,15.70
2022-09-23T18:12:09.340Z,15.70
2022-09-23T18:14:35.933Z,15.60
2022-09-23T18:17:02.536Z,15.60
2022-09-23T18:19:29.124Z,15.50
2022-09-23T18:21:57.155Z,15.50
2022-09-23T18:24:33.133Z,15.50
2022-09-23T18:27:00.907Z,15.40
2022-09-23T18:31:54.703Z,15.30
2022-09-23T18:34:21.827Z,15.20
2022-09-23T18:36:48.335Z,15.30
2022-09-23T22:16:05.076Z,13.60
2022-09-23T22:18:31.798Z,13.60
2022-09-23T22:20:58.801Z,13.60
2022-09-23T22:23:25.888Z,13.60
2022-09-23T22:26:02.105Z,13.60
2022-09-23T22:28:50.492Z,13.50
2022-09-23T22:31:40.402Z,13.50
2022-09-23T22:34:07.098Z,13.50
2022-09-23T22:36:33.933Z,13.50
2022-09-23T22:39:02.855Z,13.50
2022-09-23T22:41:29.374Z,13.50
2022-09-23T22:43:56.024Z,13.50
2022-09-23T22:46:23.442Z,13.50
2022-09-23T22:48:53.235Z,13.50
2022-09-23T22:51:22.894Z,13.50
2022-09-23T22:53:51.416Z,13.50
2022-09-23T22:56:19.709Z,13.60
2022-09-23T22:58:47.338Z,13.50
2022-09-23T23:01:13.903Z,13.50
2022-09-23T23:03:41.671Z,13.60
2022-09-23T23:06:09.677Z,13.50
2022-09-23T23:08:36.990Z,13.50
2022-09-23T23:11:05.913Z,13.50
2022-09-23T23:13:32.843Z,13.50
2022-09-23T23:16:04.332Z,13.40
2022-09-23T23:18:32.953Z,13.50
2022-09-23T23:21:26.168Z,13.40
2022-09-23T23:23:54.077Z,13.40
